createdAt,value
2023-02-25T00:00:31.308Z,79.50
2023-02-25T00:02:59.125Z,79.60
2023-02-25T00:05:26.458Z,79.50
2023-02-25T00:07:54.299Z,79.50
2023-02-25T00:10:21.624Z,79.60
2023-02-25T00:12:48.815Z,79.60
2023-02-25T00:15:16.062Z,79.60
2023-02-25T00:17:44.067Z,79.60
2023-02-25T00:20:13.695Z,79.50
2023-02-25T00:22:41.032Z,79.60
2023-02-25T00:25:09.369Z,79.60
2023-02-25T00:27:36.825Z,79.70
2023-02-25T00:30:04.731Z,79.70
2023-02-25T00:32:31.737Z,79.70
2023-02-25T00:34:58.801Z,79.90
2023-02-25T00:37:25.669Z,79.90
2023-02-25T00:39:52.604Z,79.70
2023-02-25T00:42:19.633Z,79.60
2023-02-25T00:44:47.869Z,79.50
2023-02-25T00:47:15.725Z,79.30
2023-02-25T00:49:42.850Z,79.50
2023-02-25T00:52:09.758Z,79.50
2023-02-25T00:54:36.665Z,79.50
2023-02-25T00:57:03.486Z,79.70
2023-02-25T00:59:30.346Z,80.00
2023-02-25T01:01:57.402Z,79.80
2023-02-25T01:04:24.361Z,79.50
2023-02-25T01:06:51.307Z,79.60
2023-02-25T01:09:18.404Z,79.70
2023-02-25T01:11:46.286Z,79.40
2023-02-25T01:14:15.755Z,79.50
2023-02-25T01:16:43.968Z,79.40
2023-02-25T01:19:14.909Z,79.30
2023-02-25T01:21:42.964Z,79.30
2023-02-25T01:24:39.012Z,79.20
2023-02-25T01:27:06.930Z,79.60
2023-02-25T01:29:39.439Z,79.40
2023-02-25T01:32:07.899Z,79.40
2023-02-25T01:34:34.960Z,79.50
2023-02-25T01:37:02.518Z,79.40
2023-02-25T01:39:30.013Z,79.20
2023-02-25T01:41:57.808Z,79.20
2023-02-25T01:44:29.128Z,79.10
2023-02-25T01:46:56.543Z,79.30
2023-02-25T01:49:29.328Z,79.30
2023-02-25T01:52:02.524Z,79.20
2023-02-25T01:54:29.662Z,79.30
2023-02-25T01:56:57.154Z,79.10
2023-02-25T01:59:26.317Z,79.40
2023-02-25T02:01:53.710Z,79.10
2023-02-25T02:04:21.851Z,79.20
2023-02-25T02:06:49.750Z,79.10
2023-02-25T02:09:18.512Z,79.30
2023-02-25T02:11:45.399Z,79.20
2023-02-25T02:14:14.767Z,79.40
2023-02-25T02:16:41.683Z,79.30
2023-02-25T02:19:14.392Z,79.00
2023-02-25T02:21:55.628Z,78.90
2023-02-25T02:24:31.728Z,78.60
2023-02-25T02:27:02.490Z,78.60
2023-02-25T02:29:32.591Z,78.40
2023-02-25T02:32:05.693Z,78.50
2023-02-25T02:34:47.532Z,78.60
2023-02-25T02:37:26.896Z,78.50
2023-02-25T02:40:05.964Z,78.70
2023-02-25T02:42:42.490Z,78.90
2023-02-25T02:45:21.335Z,78.70
2023-02-25T02:48:06.720Z,79.00
2023-02-25T02:50:38.524Z,79.30
2023-02-25T02:53:12.122Z,78.70
2023-02-25T02:55:46.018Z,79.00
2023-02-25T02:58:29.428Z,79.50
2023-02-25T03:00:59.470Z,79.40
2023-02-25T03:03:36.698Z,79.50
2023-02-25T03:06:05.959Z,79.50
2023-02-25T03:08:35.733Z,79.10
2023-02-25T03:11:02.809Z,79.30
2023-02-25T03:13:29.708Z,79.70
2023-02-25T03:15:59.104Z,79.70
2023-02-25T03:18:30.130Z,79.80
2023-02-25T03:20:57.802Z,79.90
2023-02-25T03:23:28.834Z,79.80
2023-02-25T03:26:06.666Z,79.60
2023-02-25T03:28:34.666Z,79.80
2023-02-25T03:31:07.391Z,80.00
2023-02-25T03:33:48.230Z,79.60
2023-02-25T03:36:27.771Z,79.60
2023-02-25T03:38:57.286Z,79.30
2023-02-25T03:41:26.507Z,79.30
2023-02-25T03:43:58.901Z,79.30
2023-02-25T03:46:27.616Z,79.50
2023-02-25T03:48:55.440Z,79.30
2023-02-25T03:51:26.215Z,79.50
2023-02-25T03:53:53.172Z,79.70
2023-02-25T03:56:20.219Z,79.90
2023-02-25T03:58:47.254Z,79.80
2023-02-25T04:01:17.340Z,79.60
2023-02-25T04:03:44.437Z,79.50
2023-02-25T04:06:14.658Z,79.50
2023-02-25T04:08:42.002Z,79.70
2023-02-25T04:11:08.928Z,79.70
2023-02-25T04:13:35.836Z,79.50
2023-02-25T04:16:02.887Z,79.40
2023-02-25T04:18:29.893Z,79.60
2023-02-25T04:20:56.776Z,79.80
2023-02-25T04:23:23.681Z,80.10
2023-02-25T04:25:50.560Z,80.10
2023-02-25T04:28:17.583Z,79.90
2023-02-25T04:30:44.748Z,80.00
2023-02-25T04:33:12.406Z,79.90
2023-02-25T04:35:39.347Z,80.00
2023-02-25T04:38:08.967Z,79.60
2023-02-25T04:40:36.098Z,79.70
2023-02-25T04:43:03.237Z,79.80
2023-02-25T04:45:30.151Z,79.70
2023-02-25T04:48:00.060Z,79.80
2023-02-25T04:50:26.919Z,80.00
2023-02-25T04:52:53.852Z,79.70
2023-02-25T04:55:20.966Z,79.80
2023-02-25T04:57:47.861Z,79.50
2023-02-25T05:00:17.030Z,79.40
2023-02-25T05:02:43.958Z,79.90
2023-02-25T05:05:11.338Z,79.70
2023-02-25T05:07:39.173Z,79.60
2023-02-25T05:10:07.234Z,79.60
2023-02-25T05:12:34.203Z,79.70
2023-02-25T05:15:01.163Z,79.60
2023-02-25T05:17:28.112Z,79.60
2023-02-25T05:19:55.090Z,80.00
2023-02-25T05:22:23.037Z,80.10
2023-02-25T05:24:50.070Z,79.80
2023-02-25T05:27:17.040Z,79.80
2023-02-25T05:29:44.019Z,79.80
2023-02-25T05:32:11.151Z,79.70
2023-02-25T05:34:38.111Z,79.70
2023-02-25T05:37:05.055Z,79.50
2023-02-25T05:39:32.405Z,79.60
2023-02-25T05:41:59.311Z,79.60
2023-02-25T05:44:26.161Z,79.50
2023-02-25T05:46:53.142Z,79.60
2023-02-25T05:49:20.930Z,79.60
2023-02-25T05:51:49.142Z,79.60
2023-02-25T05:54:16.133Z,79.60
2023-02-25T05:56:44.800Z,79.70
2023-02-25T05:59:12.185Z,79.90
2023-02-25T06:01:39.131Z,80.10
2023-02-25T06:04:06.106Z,80.20
2023-02-25T06:06:33.144Z,80.20
2023-02-25T06:09:00.212Z,80.20
2023-02-25T06:11:28.202Z,80.20
2023-02-25T06:13:55.906Z,80.10
2023-02-25T06:16:25.974Z,80.30
2023-02-25T06:18:53.296Z,80.30
2023-02-25T06:21:20.569Z,79.80
2023-02-25T06:23:50.478Z,79.90
2023-02-25T06:26:18.260Z,80.00
2023-02-25T06:28:45.208Z,79.70
2023-02-25T06:31:13.465Z,79.60
2023-02-25T06:33:40.564Z,79.40
2023-02-25T06:36:07.753Z,79.50
2023-02-25T06:38:35.194Z,79.50
2023-02-25T06:41:09.569Z,79.80
2023-02-25T06:43:36.710Z,79.70
2023-02-25T06:46:04.956Z,79.40
2023-02-25T06:48:32.064Z,79.50
2023-02-25T06:50:59.078Z,79.90
2023-02-25T06:53:26.077Z,80.00
2023-02-25T06:55:52.955Z,80.20
2023-02-25T06:58:19.922Z,80.20
2023-02-25T07:00:47.400Z,80.20
2023-02-25T07:03:14.433Z,80.30
2023-02-25T07:05:41.383Z,80.40
2023-02-25T07:08:08.385Z,80.20
2023-02-25T07:10:35.609Z,80.20
2023-02-25T07:13:02.605Z,80.20
2023-02-25T07:15:29.610Z,80.20
2023-02-25T07:17:56.641Z,80.00
2023-02-25T07:20:23.556Z,80.30
2023-02-25T07:22:50.471Z,79.80
2023-02-25T07:25:17.518Z,80.00
2023-02-25T07:27:45.062Z,80.20
2023-02-25T07:30:13.288Z,80.10
2023-02-25T07:32:41.197Z,80.10
2023-02-25T07:35:08.990Z,79.40
2023-02-25T07:37:35.826Z,79.50
2023-02-25T07:40:02.839Z,79.70
2023-02-25T07:42:29.914Z,79.70
2023-02-25T07:44:56.954Z,79.30
2023-02-25T07:47:23.813Z,79.40
2023-02-25T07:49:50.758Z,79.20
2023-02-25T07:52:17.715Z,79.30
2023-02-25T07:54:44.710Z,79.30
2023-02-25T07:57:11.597Z,79.30
2023-02-25T07:59:38.605Z,79.20
2023-02-25T08:02:06.990Z,79.20
2023-02-25T08:04:35.662Z,79.10
2023-02-25T08:07:02.694Z,79.00
2023-02-25T08:09:29.594Z,78.80
2023-02-25T08:11:56.534Z,79.00
2023-02-25T08:14:23.538Z,78.90
2023-02-25T08:16:50.904Z,78.60
2023-02-25T08:19:17.840Z,78.60
2023-02-25T08:21:44.919Z,78.30
2023-02-25T08:24:11.864Z,78.00
2023-02-25T08:26:38.936Z,77.40
2023-02-25T08:29:07.078Z,77.30
2023-02-25T08:31:35.072Z,77.20
2023-02-25T08:34:02.055Z,77.60
2023-02-25T08:36:30.717Z,77.50
2023-02-25T08:38:58.505Z,77.40
2023-02-25T08:41:26.805Z,77.10
2023-02-25T08:43:54.995Z,76.50
2023-02-25T08:46:26.701Z,76.20
2023-02-25T08:48:54.295Z,76.50
2023-02-25T08:51:22.315Z,76.40
2023-02-25T08:53:49.639Z,76.90
2023-02-25T08:56:16.728Z,77.10
2023-02-25T08:58:43.680Z,77.10
2023-02-25T09:01:15.632Z,76.70
2023-02-25T09:03:53.145Z,76.10
2023-02-25T09:06:24.508Z,76.10
2023-02-25T09:08:52.738Z,75.90
2023-02-25T09:11:19.874Z,75.60
2023-02-25T09:13:46.795Z,75.10
2023-02-25T09:16:15.915Z,75.00
2023-02-25T09:18:43.938Z,74.10
2023-02-25T09:21:12.379Z,74.50
2023-02-25T09:23:39.353Z,74.10
2023-02-25T09:26:07.320Z,74.10
2023-02-25T09:28:34.507Z,74.10
2023-02-25T09:31:02.817Z,73.50
2023-02-25T09:33:31.454Z,73.10
2023-02-25T09:36:12.326Z,72.60
2023-02-25T09:38:40.164Z,72.20
2023-02-25T09:41:25.845Z,73.00
2023-02-25T09:44:01.132Z,73.90
2023-02-25T09:46:29.321Z,73.60
2023-02-25T09:49:16.920Z,72.90
2023-02-25T09:51:46.237Z,72.10
2023-02-25T09:54:16.199Z,72.80
2023-02-25T09:56:43.223Z,72.30
2023-02-25T09:59:17.121Z,71.80
2023-02-25T10:02:07.546Z,70.80
2023-02-25T10:04:46.788Z,72.00
2023-02-25T10:07:21.096Z,70.40
2023-02-25T10:09:51.719Z,68.80
2023-02-25T10:12:21.043Z,68.30
2023-02-25T10:15:06.380Z,68.50
2023-02-25T10:17:43.547Z,68.50
2023-02-25T10:20:35.489Z,68.40
2023-02-25T10:23:02.400Z,68.20
2023-02-25T10:25:31.481Z,68.10
2023-02-25T10:28:03.576Z,68.50
2023-02-25T10:30:33.641Z,68.20
2023-02-25T10:33:03.672Z,68.10
2023-02-25T10:35:32.933Z,67.20
2023-02-25T10:38:00.148Z,66.70
2023-02-25T10:40:29.550Z,66.50
2023-02-25T10:43:15.284Z,66.00
2023-02-25T10:45:45.088Z,65.50
2023-02-25T10:48:23.152Z,64.60
2023-02-25T10:51:12.318Z,64.20
2023-02-25T10:53:40.272Z,64.10
2023-02-25T10:56:08.059Z,64.20
2023-02-25T10:58:41.012Z,63.20
2023-02-25T11:01:11.047Z,62.50
2023-02-25T11:03:44.392Z,61.50
2023-02-25T11:06:13.369Z,60.70
2023-02-25T11:08:40.944Z,60.70
2023-02-25T11:11:16.390Z,60.20
2023-02-25T11:13:43.835Z,60.50
2023-02-25T11:16:13.026Z,60.50
2023-02-25T11:18:41.023Z,60.00
2023-02-25T11:21:09.387Z,59.30
2023-02-25T11:23:42.406Z,59.60
2023-02-25T11:26:14.935Z,59.40
2023-02-25T11:28:45.369Z,59.60
2023-02-25T11:31:25.918Z,59.30
2023-02-25T11:34:00.484Z,59.10
2023-02-25T11:36:34.068Z,58.80
2023-02-25T11:39:21.866Z,58.90
2023-02-25T11:41:53.391Z,59.50
2023-02-25T11:44:31.945Z,59.70
2023-02-25T11:47:01.556Z,58.90
2023-02-25T11:49:38.387Z,58.30
2023-02-25T11:52:11.407Z,58.30
2023-02-25T11:54:50.616Z,58.60
2023-02-25T11:57:29.607Z,59.00
2023-02-25T12:00:20.790Z,59.10
2023-02-25T12:02:53.980Z,59.10
2023-02-25T12:05:39.855Z,59.30
2023-02-25T12:08:30.297Z,59.10
2023-02-25T12:11:00.368Z,59.10
2023-02-25T12:13:33.589Z,58.90
2023-02-25T12:16:03.643Z,59.30
2023-02-25T12:18:50.516Z,59.40
2023-02-25T12:21:35.931Z,59.20
2023-02-25T12:24:05.888Z,59.20
2023-02-25T12:26:52.372Z,59.30
2023-02-25T12:29:38.647Z,59.20
2023-02-25T12:32:20.908Z,59.20
2023-02-25T12:34:50.935Z,59.50
2023-02-25T12:37:17.929Z,59.30
2023-02-25T12:39:48.228Z,59.20
2023-02-25T12:42:23.921Z,59.50
2023-02-25T12:45:09.380Z,59.40
2023-02-25T12:47:43.804Z,59.40
2023-02-25T12:50:13.558Z,59.60
2023-02-25T12:53:00.838Z,59.50
2023-02-25T12:55:53.322Z,59.80
2023-02-25T12:58:20.216Z,60.30
2023-02-25T13:00:56.000Z,60.30
2023-02-25T13:03:43.273Z,60.20
2023-02-25T13:06:20.935Z,60.20
2023-02-25T13:08:47.838Z,60.30
2023-02-25T13:11:20.887Z,60.40
2023-02-25T13:13:47.940Z,60.60
2023-02-25T13:16:27.206Z,60.50
2023-02-25T13:19:23.552Z,60.40
2023-02-25T13:22:08.810Z,60.30
2023-02-25T13:24:35.632Z,59.90
2023-02-25T13:27:21.461Z,60.30
2023-02-25T13:29:54.428Z,60.60
2023-02-25T13:32:37.132Z,60.90
2023-02-25T13:35:07.357Z,61.30
2023-02-25T13:37:46.204Z,61.50
2023-02-25T13:40:20.763Z,61.90
2023-02-25T13:42:57.977Z,62.50
2023-02-25T13:45:24.954Z,62.70
2023-02-25T13:48:07.181Z,63.10
2023-02-25T13:50:54.363Z,63.30
2023-02-25T13:53:35.228Z,63.60
2023-02-25T13:56:04.996Z,63.80
2023-02-25T13:58:31.900Z,63.90
2023-02-25T14:01:11.083Z,63.90
2023-02-25T14:03:57.012Z,64.00
2023-02-25T14:06:31.456Z,64.40
2023-02-25T14:09:17.124Z,64.70
2023-02-25T14:12:12.620Z,65.00
2023-02-25T14:14:40.176Z,65.10
2023-02-25T14:17:19.204Z,65.20
2023-02-25T14:20:02.920Z,65.30
2023-02-25T14:22:35.747Z,65.50
2023-02-25T14:25:03.078Z,65.80
2023-02-25T14:27:41.706Z,66.30
2023-02-25T14:30:27.241Z,66.30
2023-02-25T14:32:54.175Z,66.60
2023-02-25T14:35:39.407Z,66.90
2023-02-25T14:38:11.309Z,67.30
2023-02-25T14:40:38.248Z,67.70
2023-02-25T14:43:21.865Z,67.70
2023-02-25T14:46:09.065Z,67.90
2023-02-25T14:48:55.448Z,68.10
2023-02-25T14:51:40.837Z,68.20
2023-02-25T14:54:26.199Z,68.30
2023-02-25T14:56:53.097Z,68.40
2023-02-25T14:59:25.911Z,68.30
2023-02-25T15:02:11.344Z,68.40
2023-02-25T15:04:39.193Z,68.50
2023-02-25T15:07:24.716Z,68.60
2023-02-25T15:10:07.637Z,68.80
2023-02-25T15:12:34.468Z,68.30
2023-02-25T15:15:04.478Z,68.10
2023-02-25T15:17:50.663Z,67.80
2023-02-25T15:20:17.684Z,68.00
2023-02-25T15:23:03.203Z,68.00
2023-02-25T15:25:37.266Z,67.50
2023-02-25T15:28:24.150Z,67.60
2023-02-25T15:31:00.685Z,67.80
2023-02-25T15:33:36.443Z,67.70
2023-02-25T15:36:15.526Z,67.80
2023-02-25T15:38:44.273Z,68.00
2023-02-25T15:41:29.571Z,67.50
2023-02-25T15:44:03.264Z,67.50
2023-02-25T15:46:36.735Z,67.20
2023-02-25T15:49:22.776Z,67.30
2023-02-25T15:51:53.946Z,67.10
2023-02-25T15:54:30.128Z,67.00
2023-02-25T15:56:58.504Z,67.10
2023-02-25T15:59:40.483Z,67.00
2023-02-25T16:02:26.244Z,67.10
2023-02-25T16:04:57.663Z,67.20
2023-02-25T16:07:32.373Z,67.30
2023-02-25T16:10:16.935Z,67.30
2023-02-25T16:12:44.897Z,67.00
2023-02-25T16:15:18.179Z,66.70
2023-02-25T16:17:45.364Z,66.80
2023-02-25T16:20:12.337Z,66.80
2023-02-25T16:22:40.524Z,66.70
2023-02-25T16:25:13.204Z,66.80
2023-02-25T16:27:52.548Z,66.90
2023-02-25T16:30:46.503Z,67.00
2023-02-25T16:33:30.836Z,66.80
2023-02-25T16:36:08.909Z,66.60
2023-02-25T16:38:37.986Z,66.80
2023-02-25T16:41:05.682Z,66.80
2023-02-25T16:43:35.987Z,67.00
2023-02-25T16:46:04.826Z,67.10
2023-02-25T16:48:37.244Z,67.20
2023-02-25T16:51:12.967Z,67.10
2023-02-25T16:53:44.992Z,67.10
2023-02-25T16:56:24.397Z,67.10
2023-02-25T16:59:16.471Z,66.80
2023-02-25T17:01:49.708Z,66.80
2023-02-25T17:04:21.206Z,67.00
2023-02-25T17:07:08.092Z,67.00
2023-02-25T17:09:35.784Z,66.80
2023-02-25T17:12:03.575Z,66.80
2023-02-25T17:14:31.385Z,66.60
2023-02-25T17:16:58.943Z,66.80
2023-02-25T17:19:26.848Z,66.60
2023-02-25T17:21:56.088Z,66.80
2023-02-25T17:24:27.088Z,67.00
2023-02-25T17:26:54.194Z,66.50
2023-02-25T17:29:21.559Z,66.80
2023-02-25T17:31:53.017Z,66.60
2023-02-25T17:34:27.899Z,66.60
2023-02-25T17:36:55.689Z,66.70
2023-02-25T17:39:22.713Z,66.70
2023-02-25T17:41:50.066Z,66.40
2023-02-25T17:44:35.565Z,66.50
2023-02-25T17:47:03.480Z,66.40
2023-02-25T17:49:31.949Z,66.40
2023-02-25T17:52:01.606Z,66.50
2023-02-25T17:54:30.263Z,66.50
2023-02-25T17:56:58.384Z,66.60
2023-02-25T17:59:28.333Z,66.80
2023-02-25T18:01:57.246Z,67.30
2023-02-25T18:04:34.436Z,67.50
2023-02-25T18:07:20.021Z,67.70
2023-02-25T18:09:46.965Z,68.40
2023-02-25T18:12:22.816Z,68.50
2023-02-25T18:14:55.436Z,68.90
2023-02-25T18:17:22.402Z,69.20
2023-02-25T18:19:49.497Z,69.60
2023-02-25T18:22:26.151Z,69.80
2023-02-25T18:24:54.715Z,70.10
2023-02-25T18:27:27.060Z,70.40
2023-02-25T18:29:55.362Z,70.40
2023-02-25T18:32:24.259Z,70.50
2023-02-25T18:34:51.188Z,70.20
2023-02-25T18:37:18.717Z,70.30
2023-02-25T18:39:48.956Z,70.30
2023-02-25T18:42:17.059Z,70.40
2023-02-25T18:44:44.694Z,70.40
2023-02-25T18:47:11.535Z,70.50
2023-02-25T18:49:38.428Z,70.90
2023-02-25T18:52:06.671Z,71.10
2023-02-25T18:54:36.786Z,71.00
2023-02-25T18:57:03.862Z,71.00
2023-02-25T18:59:30.734Z,71.20
2023-02-25T19:01:57.615Z,71.50
2023-02-25T19:04:24.534Z,71.60
2023-02-25T19:06:51.412Z,71.70
2023-02-25T19:09:18.288Z,72.00
2023-02-25T19:11:45.218Z,72.00
2023-02-25T19:14:16.597Z,71.90
2023-02-25T19:16:43.504Z,71.90
2023-02-25T19:19:10.446Z,71.90
2023-02-25T19:21:37.382Z,71.90
2023-02-25T19:24:04.742Z,71.90
2023-02-25T19:26:31.644Z,71.90
2023-02-25T19:28:58.520Z,72.00
2023-02-25T19:31:25.423Z,72.10
2023-02-25T19:33:52.277Z,72.10
2023-02-25T19:36:19.185Z,72.00
2023-02-25T19:38:46.116Z,71.90
2023-02-25T19:41:14.423Z,71.90
2023-02-25T19:43:41.316Z,72.40
2023-02-25T19:46:08.860Z,72.40
2023-02-25T19:48:36.064Z,73.10
2023-02-25T19:51:09.985Z,72.60
2023-02-25T19:53:37.271Z,72.30
2023-02-25T19:56:07.102Z,72.20
2023-02-25T19:58:34.403Z,72.20
2023-02-25T20:01:02.564Z,72.20
2023-02-25T20:03:29.588Z,72.30
2023-02-25T20:05:56.599Z,72.30
2023-02-25T20:08:23.771Z,72.40
2023-02-25T20:10:50.738Z,72.50
2023-02-25T20:13:17.889Z,72.30
2023-02-25T20:15:44.842Z,72.40
2023-02-25T20:18:11.764Z,72.70
2023-02-25T20:20:40.982Z,72.60
2023-02-25T20:23:08.105Z,72.80
2023-02-25T20:25:35.281Z,72.80
2023-02-25T20:28:02.313Z,72.90
2023-02-25T20:30:29.347Z,72.90
2023-02-25T20:32:56.379Z,72.80
2023-02-25T20:35:25.687Z,73.00
2023-02-25T20:38:02.027Z,73.10
2023-02-25T20:40:28.990Z,73.00
2023-02-25T20:42:56.151Z,73.10
2023-02-25T20:45:23.346Z,73.10
2023-02-25T20:47:50.470Z,73.20
2023-02-25T20:50:22.779Z,73.20
2023-02-25T20:52:49.926Z,73.10
2023-02-25T20:55:20.435Z,73.10
2023-02-25T20:57:47.341Z,73.20
2023-02-25T21:00:16.493Z,73.20
2023-02-25T21:02:43.497Z,73.20
2023-02-25T21:05:10.473Z,73.10
2023-02-25T21:07:37.420Z,73.10
2023-02-25T21:10:04.462Z,73.00
2023-02-25T21:12:31.432Z,73.10
2023-02-25T21:14:58.443Z,73.10
2023-02-25T21:17:25.275Z,73.00
2023-02-25T21:19:52.185Z,72.70
2023-02-25T21:22:19.108Z,73.00
2023-02-25T21:24:46.137Z,72.90
2023-02-25T21:27:13.000Z,73.00
2023-02-25T21:29:39.879Z,72.80
2023-02-25T21:32:06.725Z,72.80
2023-02-25T21:34:33.661Z,73.00
2023-02-25T21:37:00.596Z,73.00
2023-02-25T21:39:27.675Z,73.10
2023-02-25T21:41:54.598Z,73.20
2023-02-25T21:44:21.494Z,73.10
2023-02-25T21:46:48.836Z,73.10
2023-02-25T21:49:15.795Z,73.20
2023-02-25T21:51:42.721Z,73.10
2023-02-25T21:54:09.667Z,73.10
2023-02-25T21:56:36.596Z,73.10
2023-02-25T21:59:05.535Z,73.00
2023-02-25T22:01:37.213Z,72.90
2023-02-25T22:04:05.119Z,72.90
2023-02-25T22:06:32.243Z,73.00
2023-02-25T22:08:59.722Z,72.80
2023-02-25T22:11:28.372Z,72.90
2023-02-25T22:13:55.791Z,72.90
2023-02-25T22:16:23.482Z,72.90
2023-02-25T22:18:51.147Z,73.00
2023-02-25T22:21:19.825Z,73.10
2023-02-25T22:23:49.081Z,73.00
2023-02-25T22:26:17.678Z,73.00
2023-02-25T22:28:45.190Z,73.00
2023-02-25T22:31:13.797Z,73.00
2023-02-25T22:33:41.388Z,72.90
2023-02-25T22:36:08.568Z,72.90
2023-02-25T22:38:36.810Z,73.00
2023-02-25T22:41:04.659Z,72.90
2023-02-25T22:43:32.449Z,72.80
2023-02-25T22:46:05.978Z,72.90
2023-02-25T22:48:33.826Z,73.00
2023-02-25T22:51:00.690Z,73.00
2023-02-25T22:53:27.690Z,73.00
2023-02-25T22:55:54.718Z,73.10
2023-02-25T22:58:21.594Z,73.10
2023-02-25T23:00:48.422Z,73.20
2023-02-25T23:03:15.306Z,73.10
2023-02-25T23:05:42.210Z,73.20
2023-02-25T23:08:09.114Z,73.20
2023-02-25T23:10:36.413Z,73.10
2023-02-25T23:13:08.107Z,73.10
2023-02-25T23:15:39.116Z,73.20
2023-02-25T23:18:08.721Z,73.20
2023-02-25T23:20:36.794Z,73.20
2023-02-25T23:23:04.889Z,73.30
2023-02-25T23:25:33.265Z,73.40
2023-02-25T23:28:00.139Z,73.60
2023-02-25T23:30:27.605Z,73.60
2023-02-25T23:32:56.336Z,73.60
2023-02-25T23:35:23.614Z,73.50
2023-02-25T23:37:50.584Z,73.40
2023-02-25T23:40:17.576Z,73.30
2023-02-25T23:42:44.473Z,73.30
2023-02-25T23:45:12.525Z,73.30
2023-02-25T23:47:42.824Z,73.20
2023-02-25T23:50:11.824Z,73.00
2023-02-25T23:52:38.813Z,72.90
2023-02-25T23:55:06.667Z,72.90
2023-02-25T23:57:33.868Z,73.00
